Delaplaine, Arkansas
Current Conditions -  °F | °C
As of 9:15 AM on Saturday 20 Dec 2014 (Local Time) from K4M9 Reporting Station
Haze Haze  
Wind Chill:   Ceiling: 2600
Heat Index:   Visibility: 6mi
Dew Point:   Wind: 3mph
Humidity: 81%   Direction: 130°SE
Pressure: 30.31"   Gusts: NA
Location:  36.23°N, 90.73°W
Report Text: K4M9 201515Z AUTO 13003KT 6SM HZ BKN026 04/01 A3031 RMK AO2
Loading
Personal Weather Stations






























Interactive Weather Map New forecast layout! Learn more

10-Day Weather Forecast

Advertisements
Track Severe Weather on mobile